Bandon, OR

10:09 AM PDT on September 16, 2014 (GMT -0700)
North Bend | Change Station
CLOSE
Current Station
Airport
Location: North Bend,
Elevation: 16 ft
Nearby Weather Stations

Elev 16 ft 43.42 °N, 124.25 °W | Updated 14 minutes ago

Clear
Clear
64 °F
Feels Like 64 °F
N
5
Wind Variable Wind from ESE

Today
High -- | Low -- °F
--% Chance of Precip.
Yesterday
High -- | Low -- °F
Precip. -- in
6:58 AM 7:25 PM
Last Quarter, 44% visible
Pressure 29.94 in
Visibility 10.0 miles
Clouds Clear
Dew Point 55 °F
Humidity 73%
Rainfall 0.00 in
Snow Depth 0 in , 0 in , 0 in
UV 3 out of 12
Pollen 1.70 out of 12
Air Quality Not available.
Flu Activity Not available.
METAR KOTH 161655Z 11004KT 10SM CLR 18/13 A2994 RMK AO1

More Conditions Fewer Conditions

Pressure 29.94 in
Visibility 10.0 miles
Clouds Clear
Dew Point 55 °F
Humidity 73%
Rainfall 0.00 in
Snow Depth 0 in , 0 in , 0 in
UV 3 out of 12
Pollen 1.70 out of 12
Air Quality Not available.
Flu Activity Not available.
METAR KOTH 161655Z 11004KT 10SM CLR 18/13 A2994 RMK AO1

More Conditions Fewer Conditions

10-Day Weather Forecast

Almanac

Astronomy

Sep. 16, 2014 Rise Set
Actual Time 6:58 AM PDT 7:25 PM PDT
Civil Twilight 6:29 AM PDT 7:54 PM PDT
Nautical Twilight 5:56 AM PDT 8:27 PM PDT
Astronomical Twilight 5:21 AM PDT 9:02 PM PDT
Moon 12:06 AM PDT 3:00 PM PDT
Length of Visible Light 13h 24m
Length of Day
12h 27m
Tomorrow will be 2m 55s shorter.
Last Quarter, 44% of the Moon is Illuminated
Today
Last Quarter
Sep 24
New
Oct 1
First Quarter
Oct 8
Full
Oct 15
Last Quarter

Today's Extremes

State Highs State Lows

Community

WunderPhotos

Upload Photos

1,753,832 photos uploaded!

Nearby

Snow Depth

Station Depth Elevation
Ochoco Meadows 0 in 5200 ft
Blue Mountain Spring 0 in 5900 ft
Diamond Lake 0 in 5315 ft
Clackamas Lake 0 in 3400 ft
Hogg Pass 0 in 4760 ft

Earthquake Activity

City Distance Mag. Time & Date
No recent earthquake activity has been reported nearby.
Minimum magnitude displayed is 2.5.

Coastal Water Temperatures

Place Temperature
Port Orford, OR 55.0 °F
Charleston, OR 52.0 °F
South Beach, OR 54.0 °F

Nearby Weather Stations